sensor_id;sensor_type;location;lat;lon;timestamp;pressure;altitude;pressure_sealevel;temperature;humidity
57056;BME280;42945;51.718;5.324;2023-04-08T00:01:40;102109.78;;;6.07;100.00
57056;BME280;42945;51.718;5.324;2023-04-08T00:07:28;102029.22;;;5.47;100.00
57056;BME280;42945;51.718;5.324;2023-04-08T00:13:16;102149.03;;;6.21;100.00
57056;BME280;42945;51.718;5.324;2023-04-08T00:19:05;101923.47;;;4.75;100.00
57056;BME280;42945;51.718;5.324;2023-04-08T00:24:53;102008.16;;;5.47;100.00
57056;BME280;42945;51.718;5.324;2023-04-08T00:30:41;102118.41;;;6.14;100.00
57056;BME280;42945;51.718;5.324;2023-04-08T00:36:29;102091.19;;;6.15;100.00
57056;BME280;42945;51.718;5.324;2023-04-08T00:42:17;102030.69;;;5.60;100.00
57056;BME280;42945;51.718;5.324;2023-04-08T00:48:05;102133.19;;;6.22;100.00
57056;BME280;42945;51.718;5.324;2023-04-08T00:53:54;102121.19;;;6.07;100.00
57056;BME280;42945;51.718;5.324;2023-04-08T00:59:42;102148.06;;;6.26;100.00
57056;BME280;42945;51.718;5.324;2023-04-08T01:05:50;102161.13;;;6.31;100.00
57056;BME280;42945;51.718;5.324;2023-04-08T01:11:43;102140.34;;;6.16;100.00
57056;BME280;42945;51.718;5.324;2023-04-08T01:17:32;102040.47;;;5.55;100.00
57056;BME280;42945;51.718;5.324;2023-04-08T01:29:25;102172.88;;;6.13;100.00
57056;BME280;42945;51.718;5.324;2023-04-08T01:35:14;102109.91;;;5.99;100.00
57056;BME280;42945;51.718;5.324;2023-04-08T01:41:03;102145.88;;;6.00;100.00
57056;BME280;42945;51.718;5.324;2023-04-08T01:46:53;102196.75;;;6.02;100.00
57056;BME280;42945;51.718;5.324;2023-04-08T01:52:47;102111.97;;;5.80;100.00
57056;BME280;42945;51.718;5.324;2023-04-08T01:58:41;102046.44;;;5.12;100.00
57056;BME280;42945;51.718;5.324;2023-04-08T02:04:29;102172.06;;;6.08;100.00
57056;BME280;42945;51.718;5.324;2023-04-08T02:10:17;102180.06;;;6.05;100.00
57056;BME280;42945;51.718;5.324;2023-04-08T02:16:20;102085.81;;;5.15;100.00
57056;BME280;42945;51.718;5.324;2023-04-08T02:25:56;102068.88;;;5.33;100.00
57056;BME280;42945;51.718;5.324;2023-04-08T02:31:46;102160.94;;;5.90;100.00
57056;BME280;42945;51.718;5.324;2023-04-08T02:37:35;102194.22;;;5.96;100.00
57056;BME280;42945;51.718;5.324;2023-04-08T02:43:22;102164.38;;;5.94;100.00
57056;BME280;42945;51.718;5.324;2023-04-08T02:49:18;102188.84;;;6.04;100.00
57056;BME280;42945;51.718;5.324;2023-04-08T02:55:08;102221.28;;;6.04;100.00
57056;BME280;42945;51.718;5.324;2023-04-08T03:00:57;102228.38;;;6.01;100.00
57056;BME280;42945;51.718;5.324;2023-04-08T03:06:46;102055.81;;;5.27;100.00
57056;BME280;42945;51.718;5.324;2023-04-08T03:12:34;102077.81;;;5.21;100.00
57056;BME280;42945;51.718;5.324;2023-04-08T03:18:22;102111.53;;;5.52;100.00
57056;BME280;42945;51.718;5.324;2023-04-08T03:28:04;102199.53;;;5.91;100.00
57056;BME280;42945;51.718;5.324;2023-04-08T03:33:51;102261.91;;;6.44;100.00
57056;BME280;42945;51.718;5.324;2023-04-08T03:39:39;102318.25;;;6.35;100.00
57056;BME280;42945;51.718;5.324;2023-04-08T03:45:27;102241.97;;;6.29;100.00
57056;BME280;42945;51.718;5.324;2023-04-08T03:51:17;102177.41;;;5.49;100.00
57056;BME280;42945;51.718;5.324;2023-04-08T03:57:05;102197.19;;;5.73;100.00
57056;BME280;42945;51.718;5.324;2023-04-08T04:02:53;102222.97;;;5.51;100.00
57056;BME280;42945;51.718;5.324;2023-04-08T04:08:42;102175.84;;;5.34;100.00
57056;BME280;42945;51.718;5.324;2023-04-08T04:14:30;102232.84;;;5.35;100.00
57056;BME280;42945;51.718;5.324;2023-04-08T04:20:19;102132.78;;;4.78;100.00
57056;BME280;42945;51.718;5.324;2023-04-08T04:30:04;101853.41;;;3.53;100.00
57056;BME280;42945;51.718;5.324;2023-04-08T04:35:53;102219.41;;;5.55;100.00
57056;BME280;42945;51.718;5.324;2023-04-08T04:41:40;102116.22;;;4.71;100.00
57056;BME280;42945;51.718;5.324;2023-04-08T04:47:28;102256.63;;;5.26;100.00
57056;BME280;42945;51.718;5.324;2023-04-08T04:53:16;102245.22;;;5.27;100.00
57056;BME280;42945;51.718;5.324;2023-04-08T04:59:04;102214.75;;;5.10;100.00
57056;BME280;42945;51.718;5.324;2023-04-08T05:04:53;102240.88;;;5.23;100.00
57056;BME280;42945;51.718;5.324;2023-04-08T05:10:42;102274.03;;;5.36;100.00
57056;BME280;42945;51.718;5.324;2023-04-08T05:16:30;102302.06;;;5.39;100.00
57056;BME280;42945;51.718;5.324;2023-04-08T05:22:18;102258.22;;;5.39;100.00
57056;BME280;42945;51.718;5.324;2023-04-08T05:28:06;102237.56;;;5.10;100.00
57056;BME280;42945;51.718;5.324;2023-04-08T05:33:55;102281.25;;;5.19;100.00
57056;BME280;42945;51.718;5.324;2023-04-08T05:39:42;102306.78;;;5.12;100.00
57056;BME280;42945;51.718;5.324;2023-04-08T05:45:31;102283.06;;;5.13;100.00
57056;BME280;42945;51.718;5.324;2023-04-08T05:51:19;102323.50;;;5.06;100.00
57056;BME280;42945;51.718;5.324;2023-04-08T05:57:06;102216.66;;;4.16;100.00
57056;BME280;42945;51.718;5.324;2023-04-08T06:02:53;102309.81;;;4.72;100.00
57056;BME280;42945;51.718;5.324;2023-04-08T06:08:41;102153.78;;;4.00;100.00
57056;BME280;42945;51.718;5.324;2023-04-08T06:14:28;102286.31;;;4.57;100.00
57056;BME280;42945;51.718;5.324;2023-04-08T06:20:17;102185.34;;;3.89;100.00
57056;BME280;42945;51.718;5.324;2023-04-08T06:26:06;102236.19;;;3.76;100.00
57056;BME280;42945;51.718;5.324;2023-04-08T06:31:55;102223.06;;;3.78;100.00
57056;BME280;42945;51.718;5.324;2023-04-08T06:37:43;102361.75;;;4.39;100.00
57056;BME280;42945;51.718;5.324;2023-04-08T06:43:31;102352.00;;;4.58;100.00
57056;BME280;42945;51.718;5.324;2023-04-08T06:49:19;102345.88;;;4.54;100.00
57056;BME280;42945;51.718;5.324;2023-04-08T06:55:08;102492.81;;;4.85;100.00
57056;BME280;42945;51.718;5.324;2023-04-08T07:00:55;102249.25;;;3.85;100.00
57056;BME280;42945;51.718;5.324;2023-04-08T07:06:44;102341.50;;;4.55;100.00
57056;BME280;42945;51.718;5.324;2023-04-08T07:12:32;102370.25;;;4.72;100.00
57056;BME280;42945;51.718;5.324;2023-04-08T07:18:20;102256.00;;;4.19;100.00
57056;BME280;42945;51.718;5.324;2023-04-08T07:24:15;102296.03;;;4.50;100.00
57056;BME280;42945;51.718;5.324;2023-04-08T07:33:57;102279.63;;;4.19;100.00
57056;BME280;42945;51.718;5.324;2023-04-08T07:39:44;102406.72;;;5.12;100.00
57056;BME280;42945;51.718;5.324;2023-04-08T07:45:33;102262.56;;;4.66;100.00
57056;BME280;42945;51.718;5.324;2023-04-08T07:51:21;102306.13;;;4.88;100.00
57056;BME280;42945;51.718;5.324;2023-04-08T07:57:10;102540.91;;;6.00;100.00
57056;BME280;42945;51.718;5.324;2023-04-08T08:02:57;102259.88;;;4.73;100.00
57056;BME280;42945;51.718;5.324;2023-04-08T08:08:45;102453.69;;;5.49;100.00
57056;BME280;42945;51.718;5.324;2023-04-08T08:14:33;102457.03;;;5.63;100.00
57056;BME280;42945;51.718;5.324;2023-04-08T08:20:21;102408.38;;;5.19;100.00
57056;BME280;42945;51.718;5.324;2023-04-08T08:26:10;102443.88;;;5.63;100.00
57056;BME280;42945;51.718;5.324;2023-04-08T08:35:34;102393.47;;;5.97;100.00
57056;BME280;42945;51.718;5.324;2023-04-08T08:41:23;102421.53;;;6.01;100.00
57056;BME280;42945;51.718;5.324;2023-04-08T08:47:10;102533.41;;;6.41;100.00
57056;BME280;42945;51.718;5.324;2023-04-08T08:52:59;102260.03;;;5.34;100.00
57056;BME280;42945;51.718;5.324;2023-04-08T08:58:47;102443.06;;;6.31;100.00
57056;BME280;42945;51.718;5.324;2023-04-08T09:04:35;102418.16;;;6.52;100.00
57056;BME280;42945;51.718;5.324;2023-04-08T09:10:27;102442.38;;;6.76;100.00
57056;BME280;42945;51.718;5.324;2023-04-08T09:16:16;102346.91;;;6.55;100.00
57056;BME280;42945;51.718;5.324;2023-04-08T09:22:09;102442.03;;;7.47;100.00
57056;BME280;42945;51.718;5.324;2023-04-08T09:27:58;102501.88;;;7.93;100.00
57056;BME280;42945;51.718;5.324;2023-04-08T09:33:56;102625.31;;;8.77;100.00
57056;BME280;42945;51.718;5.324;2023-04-08T09:39:43;102419.69;;;7.65;100.00
57056;BME280;42945;51.718;5.324;2023-04-08T09:45:33;102326.03;;;6.43;100.00
57056;BME280;42945;51.718;5.324;2023-04-08T09:51:24;102419.47;;;7.76;100.00
57056;BME280;42945;51.718;5.324;2023-04-08T09:57:20;102409.47;;;9.04;100.00
57056;BME280;42945;51.718;5.324;2023-04-08T10:03:39;102259.88;;;7.86;100.00
57056;BME280;42945;51.718;5.324;2023-04-08T10:09:27;102380.25;;;8.37;100.00
57056;BME280;42945;51.718;5.324;2023-04-08T10:15:29;102419.72;;;8.46;100.00
57056;BME280;42945;51.718;5.324;2023-04-08T10:21:37;102348.31;;;9.46;100.00
57056;BME280;42945;51.718;5.324;2023-04-08T10:27:38;102411.28;;;9.02;100.00
57056;BME280;42945;51.718;5.324;2023-04-08T10:39:16;102307.16;;;9.03;100.00
57056;BME280;42945;51.718;5.324;2023-04-08T10:45:06;102369.16;;;8.94;100.00
57056;BME280;42945;51.718;5.324;2023-04-08T10:50:57;102366.06;;;8.39;100.00
57056;BME280;42945;51.718;5.324;2023-04-08T10:56:47;102335.81;;;8.87;100.00
57056;BME280;42945;51.718;5.324;2023-04-08T11:02:39;102338.22;;;9.29;100.00
57056;BME280;42945;51.718;5.324;2023-04-08T11:08:30;102356.66;;;8.99;100.00
57056;BME280;42945;51.718;5.324;2023-04-08T11:14:19;102330.88;;;9.69;100.00
57056;BME280;42945;51.718;5.324;2023-04-08T11:20:09;102437.16;;;10.75;100.00
57056;BME280;42945;51.718;5.324;2023-04-08T11:25:58;102331.84;;;9.94;100.00
57056;BME280;42945;51.718;5.324;2023-04-08T11:31:47;102312.66;;;10.16;100.00
57056;BME280;42945;51.718;5.324;2023-04-08T11:37:40;102327.72;;;9.85;100.00
57056;BME280;42945;51.718;5.324;2023-04-08T11:43:29;102203.84;;;9.65;100.00
57056;BME280;42945;51.718;5.324;2023-04-08T11:49:16;102292.59;;;10.86;100.00
57056;BME280;42945;51.718;5.324;2023-04-08T11:55:05;102297.16;;;11.07;100.00
57056;BME280;42945;51.718;5.324;2023-04-08T12:00:53;102091.94;;;9.02;100.00
57056;BME280;42945;51.718;5.324;2023-04-08T12:06:40;102298.66;;;11.14;100.00
57056;BME280;42945;51.718;5.324;2023-04-08T12:12:29;102321.50;;;11.18;100.00
57056;BME280;42945;51.718;5.324;2023-04-08T12:18:16;102317.94;;;11.90;100.00
57056;BME280;42945;51.718;5.324;2023-04-08T12:24:04;102276.88;;;11.75;100.00
57056;BME280;42945;51.718;5.324;2023-04-08T12:29:51;102329.84;;;11.80;100.00
57056;BME280;42945;51.718;5.324;2023-04-08T12:39:15;102257.22;;;12.01;100.00
57056;BME280;42945;51.718;5.324;2023-04-08T12:45:04;102156.06;;;12.05;100.00
57056;BME280;42945;51.718;5.324;2023-04-08T12:50:52;102246.06;;;13.16;100.00
57056;BME280;42945;51.718;5.324;2023-04-08T12:56:40;102249.09;;;13.47;100.00
57056;BME280;42945;51.718;5.324;2023-04-08T13:02:29;102435.25;;;14.33;100.00
57056;BME280;42945;51.718;5.324;2023-04-08T13:08:18;102279.66;;;13.19;100.00
57056;BME280;42945;51.718;5.324;2023-04-08T13:14:06;102173.03;;;12.43;100.00
57056;BME280;42945;51.718;5.324;2023-04-08T13:19:55;102250.97;;;13.45;100.00
57056;BME280;42945;51.718;5.324;2023-04-08T13:25:44;102198.09;;;13.35;100.00
57056;BME280;42945;51.718;5.324;2023-04-08T13:31:32;102231.03;;;13.53;98.79
57056;BME280;42945;51.718;5.324;2023-04-08T13:41:08;103878.78;;;23.41;92.16
57056;BME280;42945;51.718;5.324;2023-04-08T13:46:57;102278.56;;;13.44;89.47
57056;BME280;42945;51.718;5.324;2023-04-08T13:52:44;102166.72;;;13.42;82.87
57056;BME280;42945;51.718;5.324;2023-04-08T13:58:33;102100.34;;;13.18;72.63
57056;BME280;42945;51.718;5.324;2023-04-08T14:04:21;102236.56;;;13.49;74.02
57056;BME280;42945;51.718;5.324;2023-04-08T14:10:10;102124.63;;;12.54;69.78
57056;BME280;42945;51.718;5.324;2023-04-08T14:15:57;102096.41;;;12.70;70.02
57056;BME280;42945;51.718;5.324;2023-04-08T14:21:48;102081.22;;;12.91;65.51
57056;BME280;42945;51.718;5.324;2023-04-08T14:27:35;102232.78;;;14.26;63.24
57056;BME280;42945;51.718;5.324;2023-04-08T14:33:23;102200.63;;;13.94;64.94
57056;BME280;42945;51.718;5.324;2023-04-08T14:42:47;102221.97;;;13.38;58.69
57056;BME280;42945;51.718;5.324;2023-04-08T14:48:36;102234.06;;;13.82;58.29
57056;BME280;42945;51.718;5.324;2023-04-08T14:54:23;102189.38;;;13.87;61.03
57056;BME280;42945;51.718;5.324;2023-04-08T15:00:12;102130.78;;;13.13;60.73
57056;BME280;42945;51.718;5.324;2023-04-08T15:06:01;102246.28;;;13.69;59.14
57056;BME280;42945;51.718;5.324;2023-04-08T15:11:49;102098.44;;;13.57;59.32
57056;BME280;42945;51.718;5.324;2023-04-08T15:17:37;102226.75;;;14.22;60.51
57056;BME280;42945;51.718;5.324;2023-04-08T15:23:25;102208.13;;;14.38;68.80
57056;BME280;42945;51.718;5.324;2023-04-08T15:29:14;102241.78;;;13.88;71.41
57056;BME280;42945;51.718;5.324;2023-04-08T15:35:01;102210.72;;;14.05;68.36
57056;BME280;42945;51.718;5.324;2023-04-08T15:44:38;102210.00;;;14.01;73.72
57056;BME280;42945;51.718;5.324;2023-04-08T15:50:28;102118.44;;;13.29;74.82
57056;BME280;42945;51.718;5.324;2023-04-08T15:56:17;102283.81;;;13.64;78.27
57056;BME280;42945;51.718;5.324;2023-04-08T16:02:05;102220.41;;;13.71;89.58
57056;BME280;42945;51.718;5.324;2023-04-08T16:07:52;102217.28;;;13.80;82.49
57056;BME280;42945;51.718;5.324;2023-04-08T16:13:40;102087.25;;;12.57;79.15
57056;BME280;42945;51.718;5.324;2023-04-08T16:19:29;102223.72;;;13.19;92.63
57056;BME280;42945;51.718;5.324;2023-04-08T16:25:16;102246.22;;;12.93;91.17
57056;BME280;42945;51.718;5.324;2023-04-08T16:31:05;102252.63;;;12.48;92.19
57056;BME280;42945;51.718;5.324;2023-04-08T16:36:53;102253.03;;;12.38;96.27
57056;BME280;42945;51.718;5.324;2023-04-08T16:42:41;102239.72;;;12.18;100.00
57056;BME280;42945;51.718;5.324;2023-04-08T16:48:29;102214.47;;;11.84;100.00
57056;BME280;42945;51.718;5.324;2023-04-08T16:54:16;102244.34;;;11.69;100.00
57056;BME280;42945;51.718;5.324;2023-04-08T17:00:06;102167.97;;;11.06;100.00
57056;BME280;42945;51.718;5.324;2023-04-08T17:06:11;102352.84;;;12.05;100.00
57056;BME280;42945;51.718;5.324;2023-04-08T17:11:59;102264.59;;;11.26;100.00
57056;BME280;42945;51.718;5.324;2023-04-08T17:17:48;102481.38;;;12.51;100.00
57056;BME280;42945;51.718;5.324;2023-04-08T17:23:36;102195.88;;;10.94;100.00
57056;BME280;42945;51.718;5.324;2023-04-08T17:29:25;102261.09;;;10.76;100.00
57056;BME280;42945;51.718;5.324;2023-04-08T17:35:14;102255.41;;;10.62;100.00
57056;BME280;42945;51.718;5.324;2023-04-08T17:41:00;102280.28;;;10.33;100.00
57056;BME280;42945;51.718;5.324;2023-04-08T17:46:57;102270.22;;;10.16;100.00
57056;BME280;42945;51.718;5.324;2023-04-08T17:52:46;102265.25;;;10.05;100.00
57056;BME280;42945;51.718;5.324;2023-04-08T17:58:33;101995.25;;;8.34;100.00
57056;BME280;42945;51.718;5.324;2023-04-08T18:04:27;102272.94;;;9.58;100.00
57056;BME280;42945;51.718;5.324;2023-04-08T18:10:16;102237.19;;;9.43;100.00
57056;BME280;42945;51.718;5.324;2023-04-08T18:16:13;101971.38;;;9.20;100.00
57056;BME280;42945;51.718;5.324;2023-04-08T18:22:03;102357.50;;;9.64;100.00
57056;BME280;42945;51.718;5.324;2023-04-08T18:27:51;102298.75;;;8.89;100.00
57056;BME280;42945;51.718;5.324;2023-04-08T18:33:39;102300.16;;;8.69;100.00
57056;BME280;42945;51.718;5.324;2023-04-08T18:39:26;102297.88;;;8.55;100.00
57056;BME280;42945;51.718;5.324;2023-04-08T18:49:15;102318.63;;;8.33;100.00
57056;BME280;42945;51.718;5.324;2023-04-08T18:55:04;102268.91;;;8.13;100.00
57056;BME280;42945;51.718;5.324;2023-04-08T19:00:53;102218.47;;;7.49;100.00
57056;BME280;42945;51.718;5.324;2023-04-08T19:06:42;102329.53;;;8.21;100.00
57056;BME280;42945;51.718;5.324;2023-04-08T19:12:31;102163.91;;;7.49;100.00
57056;BME280;42945;51.718;5.324;2023-04-08T19:18:19;102288.09;;;8.21;100.00
57056;BME280;42945;51.718;5.324;2023-04-08T19:24:07;102350.19;;;8.39;100.00
57056;BME280;42945;51.718;5.324;2023-04-08T19:29:55;101956.38;;;8.38;100.00
57056;BME280;42945;51.718;5.324;2023-04-08T19:35:47;102335.81;;;8.53;100.00
57056;BME280;42945;51.718;5.324;2023-04-08T19:41:36;102260.56;;;8.30;100.00
57056;BME280;42945;51.718;5.324;2023-04-08T19:51:18;102354.38;;;8.51;100.00
57056;BME280;42945;51.718;5.324;2023-04-08T19:57:09;102335.22;;;8.41;100.00
57056;BME280;42945;51.718;5.324;2023-04-08T20:02:59;102042.75;;;6.64;100.00
57056;BME280;42945;51.718;5.324;2023-04-08T20:08:48;102202.38;;;7.97;100.00
57056;BME280;42945;51.718;5.324;2023-04-08T20:14:40;102357.06;;;8.84;100.00
57056;BME280;42945;51.718;5.324;2023-04-08T20:20:29;102243.72;;;7.98;100.00
57056;BME280;42945;51.718;5.324;2023-04-08T20:26:18;102346.00;;;8.68;100.00
57056;BME280;42945;51.718;5.324;2023-04-08T20:32:08;102321.31;;;8.69;100.00
57056;BME280;42945;51.718;5.324;2023-04-08T20:37:56;102436.78;;;9.39;100.00
57056;BME280;42945;51.718;5.324;2023-04-08T20:43:46;102205.81;;;8.01;100.00
57056;BME280;42945;51.718;5.324;2023-04-08T20:53:27;102368.75;;;8.75;100.00
57056;BME280;42945;51.718;5.324;2023-04-08T20:59:16;102482.03;;;9.30;100.00
57056;BME280;42945;51.718;5.324;2023-04-08T21:05:06;102357.59;;;8.62;100.00
57056;BME280;42945;51.718;5.324;2023-04-08T21:10:55;102433.22;;;8.71;100.00
57056;BME280;42945;51.718;5.324;2023-04-08T21:16:43;102388.59;;;8.92;100.00
57056;BME280;42945;51.718;5.324;2023-04-08T21:22:31;102383.66;;;8.43;100.00
57056;BME280;42945;51.718;5.324;2023-04-08T21:28:20;102364.34;;;8.38;100.00
57056;BME280;42945;51.718;5.324;2023-04-08T21:34:08;102262.91;;;7.69;100.00
57056;BME280;42945;51.718;5.324;2023-04-08T21:39:57;102414.63;;;8.35;100.00
57056;BME280;42945;51.718;5.324;2023-04-08T21:45:45;102397.09;;;8.31;100.00
57056;BME280;42945;51.718;5.324;2023-04-08T21:55:26;102283.66;;;7.45;100.00
57056;BME280;42945;51.718;5.324;2023-04-08T22:01:16;102348.41;;;8.04;100.00
57056;BME280;42945;51.718;5.324;2023-04-08T22:07:05;102484.44;;;8.69;100.00
57056;BME280;42945;51.718;5.324;2023-04-08T22:12:53;102399.13;;;8.20;100.00
57056;BME280;42945;51.718;5.324;2023-04-08T22:18:41;102426.84;;;8.00;100.00
57056;BME280;42945;51.718;5.324;2023-04-08T22:24:28;102374.75;;;8.07;100.00
57056;BME280;42945;51.718;5.324;2023-04-08T22:30:16;102390.78;;;7.99;100.00
57056;BME280;42945;51.718;5.324;2023-04-08T22:36:04;102298.25;;;7.21;100.00
57056;BME280;42945;51.718;5.324;2023-04-08T22:41:52;102413.75;;;7.96;100.00
57056;BME280;42945;51.718;5.324;2023-04-08T22:47:41;102438.50;;;7.92;100.00
57056;BME280;42945;51.718;5.324;2023-04-08T22:57:05;102416.38;;;7.97;100.00
57056;BME280;42945;51.718;5.324;2023-04-08T23:02:52;102377.06;;;7.82;100.00
57056;BME280;42945;51.718;5.324;2023-04-08T23:08:39;102368.28;;;7.81;100.00
57056;BME280;42945;51.718;5.324;2023-04-08T23:14:27;102399.72;;;7.94;100.00
57056;BME280;42945;51.718;5.324;2023-04-08T23:20:16;102399.53;;;8.03;100.00
57056;BME280;42945;51.718;5.324;2023-04-08T23:26:03;102354.13;;;7.85;100.00
57056;BME280;42945;51.718;5.324;2023-04-08T23:31:52;102395.44;;;7.88;100.00
57056;BME280;42945;51.718;5.324;2023-04-08T23:37:40;102298.13;;;7.27;100.00
57056;BME280;42945;51.718;5.324;2023-04-08T23:43:28;102396.50;;;7.79;100.00
57056;BME280;42945;51.718;5.324;2023-04-08T23:49:16;102381.59;;;7.75;100.00
57056;BME280;42945;51.718;5.324;2023-04-08T23:55:04;102588.50;;;9.05;100.00
